sensor_id;sensor_type;location;lat;lon;timestamp;temperature;humidity
4107;DHT22;21906;50.812;7.132;2023-02-11T00:01:50;7.70;66.20
4107;DHT22;21906;50.812;7.132;2023-02-11T00:04:16;7.70;66.20
4107;DHT22;21906;50.812;7.132;2023-02-11T00:06:42;7.70;66.30
4107;DHT22;21906;50.812;7.132;2023-02-11T00:09:09;7.70;66.30
4107;DHT22;21906;50.812;7.132;2023-02-11T00:11:34;7.70;66.20
4107;DHT22;21906;50.812;7.132;2023-02-11T00:14:03;7.70;66.20
4107;DHT22;21906;50.812;7.132;2023-02-11T00:16:29;7.70;66.30
4107;DHT22;21906;50.812;7.132;2023-02-11T00:19:01;7.70;66.20
4107;DHT22;21906;50.812;7.132;2023-02-11T00:21:27;7.70;66.30
4107;DHT22;21906;50.812;7.132;2023-02-11T00:23:53;7.70;66.30
4107;DHT22;21906;50.812;7.132;2023-02-11T00:26:24;7.70;66.30
4107;DHT22;21906;50.812;7.132;2023-02-11T00:28:51;7.70;66.40
4107;DHT22;21906;50.812;7.132;2023-02-11T00:31:18;7.70;66.40
4107;DHT22;21906;50.812;7.132;2023-02-11T00:33:45;7.70;66.50
4107;DHT22;21906;50.812;7.132;2023-02-11T00:36:14;7.70;66.40
4107;DHT22;21906;50.812;7.132;2023-02-11T00:38:42;7.60;66.50
4107;DHT22;21906;50.812;7.132;2023-02-11T00:41:08;7.50;66.50
4107;DHT22;21906;50.812;7.132;2023-02-11T00:43:34;7.50;66.50
4107;DHT22;21906;50.812;7.132;2023-02-11T00:46:00;7.50;66.60
4107;DHT22;21906;50.812;7.132;2023-02-11T00:48:26;7.40;67.00
4107;DHT22;21906;50.812;7.132;2023-02-11T00:50:51;7.40;67.20
4107;DHT22;21906;50.812;7.132;2023-02-11T00:53:17;7.30;67.20
4107;DHT22;21906;50.812;7.132;2023-02-11T00:55:43;7.30;67.50
4107;DHT22;21906;50.812;7.132;2023-02-11T00:58:08;7.30;67.50
4107;DHT22;21906;50.812;7.132;2023-02-11T01:00:34;7.30;67.40
4107;DHT22;21906;50.812;7.132;2023-02-11T01:03:00;7.20;67.40
4107;DHT22;21906;50.812;7.132;2023-02-11T01:05:26;7.20;67.40
4107;DHT22;21906;50.812;7.132;2023-02-11T01:07:51;7.20;67.40
4107;DHT22;21906;50.812;7.132;2023-02-11T01:10:20;7.20;67.50
4107;DHT22;21906;50.812;7.132;2023-02-11T01:12:48;7.20;67.50
4107;DHT22;21906;50.812;7.132;2023-02-11T01:15:16;7.20;67.60
4107;DHT22;21906;50.812;7.132;2023-02-11T01:17:42;7.20;67.60
4107;DHT22;21906;50.812;7.132;2023-02-11T01:20:14;7.20;67.60
4107;DHT22;21906;50.812;7.132;2023-02-11T01:22:40;7.20;67.50
4107;DHT22;21906;50.812;7.132;2023-02-11T01:25:07;7.20;67.60
4107;DHT22;21906;50.812;7.132;2023-02-11T01:27:33;7.20;67.60
4107;DHT22;21906;50.812;7.132;2023-02-11T01:29:59;7.20;67.60
4107;DHT22;21906;50.812;7.132;2023-02-11T01:32:24;7.10;67.70
4107;DHT22;21906;50.812;7.132;2023-02-11T01:34:50;7.20;67.70
4107;DHT22;21906;50.812;7.132;2023-02-11T01:37:16;7.10;67.60
4107;DHT22;21906;50.812;7.132;2023-02-11T01:39:41;7.10;67.60
4107;DHT22;21906;50.812;7.132;2023-02-11T01:42:19;7.10;67.70
4107;DHT22;21906;50.812;7.132;2023-02-11T01:44:47;7.10;67.60
4107;DHT22;21906;50.812;7.132;2023-02-11T01:47:13;7.00;67.60
4107;DHT22;21906;50.812;7.132;2023-02-11T01:49:52;7.00;67.60
4107;DHT22;21906;50.812;7.132;2023-02-11T01:52:30;6.90;67.70
4107;DHT22;21906;50.812;7.132;2023-02-11T01:54:59;6.90;67.80
4107;DHT22;21906;50.812;7.132;2023-02-11T01:57:47;6.90;67.80
4107;DHT22;21906;50.812;7.132;2023-02-11T02:00:17;6.90;67.70
4107;DHT22;21906;50.812;7.132;2023-02-11T02:03:04;6.70;68.40
4107;DHT22;21906;50.812;7.132;2023-02-11T02:05:41;6.60;68.60
4107;DHT22;21906;50.812;7.132;2023-02-11T02:08:34;6.60;68.70
4107;DHT22;21906;50.812;7.132;2023-02-11T02:11:01;6.50;68.80
4107;DHT22;21906;50.812;7.132;2023-02-11T02:13:30;6.50;69.10
4107;DHT22;21906;50.812;7.132;2023-02-11T02:15:58;6.50;69.30
4107;DHT22;21906;50.812;7.132;2023-02-11T02:35:34;6.70;69.10
4107;DHT22;21906;50.812;7.132;2023-02-11T02:38:29;6.70;69.10
4107;DHT22;21906;50.812;7.132;2023-02-11T02:41:03;6.60;69.20
4107;DHT22;21906;50.812;7.132;2023-02-11T02:43:31;6.60;69.40
4107;DHT22;21906;50.812;7.132;2023-02-11T02:48:39;6.70;69.30
4107;DHT22;21906;50.812;7.132;2023-02-11T03:10:46;6.60;69.70
4107;DHT22;21906;50.812;7.132;2023-02-11T03:13:15;6.70;69.60
4107;DHT22;21906;50.812;7.132;2023-02-11T03:15:44;6.70;69.60
4107;DHT22;21906;50.812;7.132;2023-02-11T03:18:15;6.70;69.40
4107;DHT22;21906;50.812;7.132;2023-02-11T03:20:44;6.70;69.40
4107;DHT22;21906;50.812;7.132;2023-02-11T03:26:27;6.70;69.30
4107;DHT22;21906;50.812;7.132;2023-02-11T03:31:46;6.50;69.70
4107;DHT22;21906;50.812;7.132;2023-02-11T03:34:22;6.60;70.50
4107;DHT22;21906;50.812;7.132;2023-02-11T03:36:58;6.60;70.80
4107;DHT22;21906;50.812;7.132;2023-02-11T03:39:30;6.60;71.10
4107;DHT22;21906;50.812;7.132;2023-02-11T03:41:58;6.60;71.10
4107;DHT22;21906;50.812;7.132;2023-02-11T03:44:28;6.60;71.00
4107;DHT22;21906;50.812;7.132;2023-02-11T03:46:55;6.70;71.00
4107;DHT22;21906;50.812;7.132;2023-02-11T03:49:22;6.70;71.00
4107;DHT22;21906;50.812;7.132;2023-02-11T03:51:50;6.50;71.50
4107;DHT22;21906;50.812;7.132;2023-02-11T03:54:22;6.40;71.90
4107;DHT22;21906;50.812;7.132;2023-02-11T03:56:54;6.40;71.80
4107;DHT22;21906;50.812;7.132;2023-02-11T03:59:20;6.40;72.10
4107;DHT22;21906;50.812;7.132;2023-02-11T04:01:46;6.40;72.00
4107;DHT22;21906;50.812;7.132;2023-02-11T04:04:12;6.50;71.90
4107;DHT22;21906;50.812;7.132;2023-02-11T04:06:38;6.50;71.80
4107;DHT22;21906;50.812;7.132;2023-02-11T04:09:04;6.50;71.80
4107;DHT22;21906;50.812;7.132;2023-02-11T04:11:29;6.50;71.70
4107;DHT22;21906;50.812;7.132;2023-02-11T04:13:55;6.50;71.50
4107;DHT22;21906;50.812;7.132;2023-02-11T04:16:21;6.50;70.90
4107;DHT22;21906;50.812;7.132;2023-02-11T04:18:47;6.40;70.80
4107;DHT22;21906;50.812;7.132;2023-02-11T04:21:13;6.40;70.30
4107;DHT22;21906;50.812;7.132;2023-02-11T04:23:39;6.40;70.20
4107;DHT22;21906;50.812;7.132;2023-02-11T04:26:05;6.30;70.10
4107;DHT22;21906;50.812;7.132;2023-02-11T09:10:34;7.50;71.00
4107;DHT22;21906;50.812;7.132;2023-02-11T09:13:00;7.50;71.00
4107;DHT22;21906;50.812;7.132;2023-02-11T09:15:25;7.50;71.10
4107;DHT22;21906;50.812;7.132;2023-02-11T09:17:51;7.50;71.20
4107;DHT22;21906;50.812;7.132;2023-02-11T09:22:44;7.60;71.30
4107;DHT22;21906;50.812;7.132;2023-02-11T09:25:10;7.40;71.20
4107;DHT22;21906;50.812;7.132;2023-02-11T09:27:35;7.50;71.30
4107;DHT22;21906;50.812;7.132;2023-02-11T09:30:01;7.50;71.20
4107;DHT22;21906;50.812;7.132;2023-02-11T09:32:28;7.60;71.20
4107;DHT22;21906;50.812;7.132;2023-02-11T09:34:53;7.60;71.30
4107;DHT22;21906;50.812;7.132;2023-02-11T09:37:19;7.60;71.10
4107;DHT22;21906;50.812;7.132;2023-02-11T09:39:45;7.60;71.00
4107;DHT22;21906;50.812;7.132;2023-02-11T09:42:27;7.60;71.30
4107;DHT22;21906;50.812;7.132;2023-02-11T09:44:59;7.60;71.20
4107;DHT22;21906;50.812;7.132;2023-02-11T09:47:35;7.70;71.00
4107;DHT22;21906;50.812;7.132;2023-02-11T09:55:42;7.80;71.00
4107;DHT22;21906;50.812;7.132;2023-02-11T10:00:47;7.80;71.00
4107;DHT22;21906;50.812;7.132;2023-02-11T10:06:23;7.90;71.10
4107;DHT22;21906;50.812;7.132;2023-02-11T10:15:22;7.90;71.00
4107;DHT22;21906;50.812;7.132;2023-02-11T10:17:48;7.90;71.00
4107;DHT22;21906;50.812;7.132;2023-02-11T10:23:21;8.00;71.10
4107;DHT22;21906;50.812;7.132;2023-02-11T10:25:51;8.00;70.90
4107;DHT22;21906;50.812;7.132;2023-02-11T10:28:31;8.00;70.80
4107;DHT22;21906;50.812;7.132;2023-02-11T10:31:08;8.00;70.90
4107;DHT22;21906;50.812;7.132;2023-02-11T10:36:10;8.00;71.00
4107;DHT22;21906;50.812;7.132;2023-02-11T10:38:36;8.00;71.00
4107;DHT22;21906;50.812;7.132;2023-02-11T10:41:03;8.10;71.10
4107;DHT22;21906;50.812;7.132;2023-02-11T10:43:31;8.20;71.10
4107;DHT22;21906;50.812;7.132;2023-02-11T10:45:58;8.20;71.10
4107;DHT22;21906;50.812;7.132;2023-02-11T10:51:11;8.20;70.90
4107;DHT22;21906;50.812;7.132;2023-02-11T10:53:38;8.30;70.90
4107;DHT22;21906;50.812;7.132;2023-02-11T10:56:06;8.30;70.90
4107;DHT22;21906;50.812;7.132;2023-02-11T10:58:45;8.30;71.10
4107;DHT22;21906;50.812;7.132;2023-02-11T11:01:12;8.40;71.00
4107;DHT22;21906;50.812;7.132;2023-02-11T11:03:44;8.40;70.90
4107;DHT22;21906;50.812;7.132;2023-02-11T11:06:11;8.40;71.10
4107;DHT22;21906;50.812;7.132;2023-02-11T11:11:17;8.40;71.10
4107;DHT22;21906;50.812;7.132;2023-02-11T11:16:34;8.40;71.10
4107;DHT22;21906;50.812;7.132;2023-02-11T11:24:28;8.40;71.30
4107;DHT22;21906;50.812;7.132;2023-02-11T11:26:59;8.40;71.20
4107;DHT22;21906;50.812;7.132;2023-02-11T11:29:46;8.40;71.30
4107;DHT22;21906;50.812;7.132;2023-02-11T11:32:27;8.40;71.30
4107;DHT22;21906;50.812;7.132;2023-02-11T11:35:01;8.40;71.30
4107;DHT22;21906;50.812;7.132;2023-02-11T11:37:33;8.40;71.20
4107;DHT22;21906;50.812;7.132;2023-02-11T11:42:38;8.50;71.20
4107;DHT22;21906;50.812;7.132;2023-02-11T11:50:51;8.60;71.20
4107;DHT22;21906;50.812;7.132;2023-02-11T11:56:21;8.60;71.00
4107;DHT22;21906;50.812;7.132;2023-02-11T11:58:48;8.60;71.00
4107;DHT22;21906;50.812;7.132;2023-02-11T12:04:41;8.70;71.10
4107;DHT22;21906;50.812;7.132;2023-02-11T12:23:09;8.80;71.50
4107;DHT22;21906;50.812;7.132;2023-02-11T12:31:46;8.80;71.50
4107;DHT22;21906;50.812;7.132;2023-02-11T12:49:37;8.80;72.40
4107;DHT22;21906;50.812;7.132;2023-02-11T12:54:29;8.90;72.60
4107;DHT22;21906;50.812;7.132;2023-02-11T12:57:05;8.90;72.60
4107;DHT22;21906;50.812;7.132;2023-02-11T12:59:40;8.90;72.60
4107;DHT22;21906;50.812;7.132;2023-02-11T13:05:08;8.90;73.10
4107;DHT22;21906;50.812;7.132;2023-02-11T13:07:43;8.90;73.10
4107;DHT22;21906;50.812;7.132;2023-02-11T13:12:45;9.00;73.20
4107;DHT22;21906;50.812;7.132;2023-02-11T13:15:32;8.90;74.60
4107;DHT22;21906;50.812;7.132;2023-02-11T13:20:56;9.00;74.60
4107;DHT22;21906;50.812;7.132;2023-02-11T13:26:56;9.10;75.20
4107;DHT22;21906;50.812;7.132;2023-02-11T13:32:12;9.20;76.30
4107;DHT22;21906;50.812;7.132;2023-02-11T13:37:24;9.10;77.00
4107;DHT22;21906;50.812;7.132;2023-02-11T13:40:01;9.10;77.00
4107;DHT22;21906;50.812;7.132;2023-02-11T13:42:29;9.10;77.00
4107;DHT22;21906;50.812;7.132;2023-02-11T13:44:56;9.20;76.80
4107;DHT22;21906;50.812;7.132;2023-02-11T13:47:34;9.10;76.90
4107;DHT22;21906;50.812;7.132;2023-02-11T13:50:04;9.20;76.90
4107;DHT22;21906;50.812;7.132;2023-02-11T13:52:36;9.30;76.60
4107;DHT22;21906;50.812;7.132;2023-02-11T13:55:20;9.30;76.70
4107;DHT22;21906;50.812;7.132;2023-02-11T14:19:33;9.30;77.30
4107;DHT22;21906;50.812;7.132;2023-02-11T14:22:04;9.20;77.60
4107;DHT22;21906;50.812;7.132;2023-02-11T14:27:12;9.20;77.70
4107;DHT22;21906;50.812;7.132;2023-02-11T14:43:44;9.40;77.30
4107;DHT22;21906;50.812;7.132;2023-02-11T14:46:15;9.50;77.00
4107;DHT22;21906;50.812;7.132;2023-02-11T14:48:45;9.50;77.10
4107;DHT22;21906;50.812;7.132;2023-02-11T14:51:33;9.50;77.00
4107;DHT22;21906;50.812;7.132;2023-02-11T14:54:08;9.60;76.90
4107;DHT22;21906;50.812;7.132;2023-02-11T14:56:38;9.50;77.00
4107;DHT22;21906;50.812;7.132;2023-02-11T14:59:20;9.40;77.50
4107;DHT22;21906;50.812;7.132;2023-02-11T15:01:51;9.40;77.60
4107;DHT22;21906;50.812;7.132;2023-02-11T15:06:49;9.50;77.30
4107;DHT22;21906;50.812;7.132;2023-02-11T15:09:18;9.40;77.50
4107;DHT22;21906;50.812;7.132;2023-02-11T15:11:47;9.40;77.50
4107;DHT22;21906;50.812;7.132;2023-02-11T15:14:34;9.40;77.60
4107;DHT22;21906;50.812;7.132;2023-02-11T15:17:03;9.50;77.50
4107;DHT22;21906;50.812;7.132;2023-02-11T15:19:38;9.60;77.20
4107;DHT22;21906;50.812;7.132;2023-02-11T15:22:44;9.50;77.20
4107;DHT22;21906;50.812;7.132;2023-02-11T15:25:14;9.60;77.10
4107;DHT22;21906;50.812;7.132;2023-02-11T15:27:48;9.70;77.10
4107;DHT22;21906;50.812;7.132;2023-02-11T15:30:34;9.60;77.10
4107;DHT22;21906;50.812;7.132;2023-02-11T15:33:01;9.60;77.10
4107;DHT22;21906;50.812;7.132;2023-02-11T15:35:33;9.70;77.00
4107;DHT22;21906;50.812;7.132;2023-02-11T15:38:01;9.70;76.80
4107;DHT22;21906;50.812;7.132;2023-02-11T15:40:32;9.60;76.90
4107;DHT22;21906;50.812;7.132;2023-02-11T15:43:06;9.50;77.20
4107;DHT22;21906;50.812;7.132;2023-02-11T15:50:32;9.30;78.20
4107;DHT22;21906;50.812;7.132;2023-02-11T15:53:11;9.30;78.10
4107;DHT22;21906;50.812;7.132;2023-02-11T15:55:41;9.30;78.20
4107;DHT22;21906;50.812;7.132;2023-02-11T15:58:08;9.30;78.10
4107;DHT22;21906;50.812;7.132;2023-02-11T16:00:48;9.30;78.10
4107;DHT22;21906;50.812;7.132;2023-02-11T16:03:20;9.40;78.10
4107;DHT22;21906;50.812;7.132;2023-02-11T16:05:46;9.30;78.10
4107;DHT22;21906;50.812;7.132;2023-02-11T16:08:24;9.40;78.00
4107;DHT22;21906;50.812;7.132;2023-02-11T16:10:56;9.30;78.00
4107;DHT22;21906;50.812;7.132;2023-02-11T16:13:23;9.40;77.90
4107;DHT22;21906;50.812;7.132;2023-02-11T16:15:56;9.40;78.00
4107;DHT22;21906;50.812;7.132;2023-02-11T16:18:27;9.40;77.90
4107;DHT22;21906;50.812;7.132;2023-02-11T16:20:54;9.50;77.80
4107;DHT22;21906;50.812;7.132;2023-02-11T16:23:30;9.40;77.90
4107;DHT22;21906;50.812;7.132;2023-02-11T16:26:07;9.50;77.70
4107;DHT22;21906;50.812;7.132;2023-02-11T16:28:35;9.40;77.60
4107;DHT22;21906;50.812;7.132;2023-02-11T16:31:02;9.50;77.50
4107;DHT22;21906;50.812;7.132;2023-02-11T16:33:28;9.50;77.50
4107;DHT22;21906;50.812;7.132;2023-02-11T16:35:54;9.50;77.50
4107;DHT22;21906;50.812;7.132;2023-02-11T16:38:20;9.40;77.40
4107;DHT22;21906;50.812;7.132;2023-02-11T16:40:46;9.40;77.60
4107;DHT22;21906;50.812;7.132;2023-02-11T16:43:18;9.40;77.60
4107;DHT22;21906;50.812;7.132;2023-02-11T16:45:44;9.40;77.60
4107;DHT22;21906;50.812;7.132;2023-02-11T16:48:14;9.40;77.50
4107;DHT22;21906;50.812;7.132;2023-02-11T16:50:44;9.40;77.60
4107;DHT22;21906;50.812;7.132;2023-02-11T16:53:11;9.40;77.40
4107;DHT22;21906;50.812;7.132;2023-02-11T16:55:39;9.40;77.40
4107;DHT22;21906;50.812;7.132;2023-02-11T16:58:05;9.40;77.50
4107;DHT22;21906;50.812;7.132;2023-02-11T17:00:30;9.40;77.40
4107;DHT22;21906;50.812;7.132;2023-02-11T17:02:56;9.40;77.40
4107;DHT22;21906;50.812;7.132;2023-02-11T17:05:22;9.40;77.40
4107;DHT22;21906;50.812;7.132;2023-02-11T17:07:51;9.40;77.40
4107;DHT22;21906;50.812;7.132;2023-02-11T17:10:22;9.40;77.30
4107;DHT22;21906;50.812;7.132;2023-02-11T17:12:51;9.40;77.30
4107;DHT22;21906;50.812;7.132;2023-02-11T17:15:18;9.40;77.20
4107;DHT22;21906;50.812;7.132;2023-02-11T17:17:44;9.40;77.20
4107;DHT22;21906;50.812;7.132;2023-02-11T17:20:11;9.40;77.20
4107;DHT22;21906;50.812;7.132;2023-02-11T17:22:37;9.40;77.30
4107;DHT22;21906;50.812;7.132;2023-02-11T17:25:06;9.40;77.20
4107;DHT22;21906;50.812;7.132;2023-02-11T17:27:32;9.40;77.20
4107;DHT22;21906;50.812;7.132;2023-02-11T17:29:58;9.40;77.20
4107;DHT22;21906;50.812;7.132;2023-02-11T17:32:24;9.40;77.60
4107;DHT22;21906;50.812;7.132;2023-02-11T17:34:52;9.40;77.60
4107;DHT22;21906;50.812;7.132;2023-02-11T17:37:18;9.40;77.50
4107;DHT22;21906;50.812;7.132;2023-02-11T17:39:43;9.40;77.70
4107;DHT22;21906;50.812;7.132;2023-02-11T17:42:09;9.40;77.50
4107;DHT22;21906;50.812;7.132;2023-02-11T17:44:36;9.40;77.60
4107;DHT22;21906;50.812;7.132;2023-02-11T17:47:03;9.40;77.80
4107;DHT22;21906;50.812;7.132;2023-02-11T17:49:29;9.40;78.00
4107;DHT22;21906;50.812;7.132;2023-02-11T17:51:55;9.40;77.90
4107;DHT22;21906;50.812;7.132;2023-02-11T17:54:20;9.40;77.70
4107;DHT22;21906;50.812;7.132;2023-02-11T17:56:46;9.40;77.50
4107;DHT22;21906;50.812;7.132;2023-02-11T17:59:14;9.50;77.50
4107;DHT22;21906;50.812;7.132;2023-02-11T18:01:41;9.40;77.50
4107;DHT22;21906;50.812;7.132;2023-02-11T18:04:13;9.40;77.40
4107;DHT22;21906;50.812;7.132;2023-02-11T18:06:43;9.40;77.30
4107;DHT22;21906;50.812;7.132;2023-02-11T18:09:10;9.40;77.40
4107;DHT22;21906;50.812;7.132;2023-02-11T18:11:37;9.50;77.30
4107;DHT22;21906;50.812;7.132;2023-02-11T18:14:03;9.50;77.30
4107;DHT22;21906;50.812;7.132;2023-02-11T18:16:32;9.50;77.30
4107;DHT22;21906;50.812;7.132;2023-02-11T18:18:59;9.50;77.30
4107;DHT22;21906;50.812;7.132;2023-02-11T18:21:26;9.50;77.30
4107;DHT22;21906;50.812;7.132;2023-02-11T18:23:52;9.50;77.20
4107;DHT22;21906;50.812;7.132;2023-02-11T18:26:19;9.60;77.30
4107;DHT22;21906;50.812;7.132;2023-02-11T18:28:45;9.50;77.20
4107;DHT22;21906;50.812;7.132;2023-02-11T18:31:11;9.50;77.20
4107;DHT22;21906;50.812;7.132;2023-02-11T18:33:39;9.40;77.30
4107;DHT22;21906;50.812;7.132;2023-02-11T18:36:10;9.40;77.20
4107;DHT22;21906;50.812;7.132;2023-02-11T18:38:36;9.40;77.10
4107;DHT22;21906;50.812;7.132;2023-02-11T18:41:03;9.40;77.30
4107;DHT22;21906;50.812;7.132;2023-02-11T18:43:29;9.30;77.30
4107;DHT22;21906;50.812;7.132;2023-02-11T18:45:56;9.30;77.50
4107;DHT22;21906;50.812;7.132;2023-02-11T18:48:22;9.30;77.80
4107;DHT22;21906;50.812;7.132;2023-02-11T18:50:48;9.30;77.80
4107;DHT22;21906;50.812;7.132;2023-02-11T18:53:14;9.30;77.90
4107;DHT22;21906;50.812;7.132;2023-02-11T18:55:41;9.20;77.90
4107;DHT22;21906;50.812;7.132;2023-02-11T18:58:08;9.20;78.00
4107;DHT22;21906;50.812;7.132;2023-02-11T19:00:34;9.20;78.10
4107;DHT22;21906;50.812;7.132;2023-02-11T19:03:00;9.20;78.10
4107;DHT22;21906;50.812;7.132;2023-02-11T19:05:26;9.20;77.80
4107;DHT22;21906;50.812;7.132;2023-02-11T19:07:58;9.10;77.80
4107;DHT22;21906;50.812;7.132;2023-02-11T19:10:24;9.10;77.90
4107;DHT22;21906;50.812;7.132;2023-02-11T19:12:54;9.10;77.50
4107;DHT22;21906;50.812;7.132;2023-02-11T19:15:21;9.10;77.60
4107;DHT22;21906;50.812;7.132;2023-02-11T19:17:47;9.00;77.70
4107;DHT22;21906;50.812;7.132;2023-02-11T19:20:13;8.90;77.10
4107;DHT22;21906;50.812;7.132;2023-02-11T19:22:38;8.90;78.00
4107;DHT22;21906;50.812;7.132;2023-02-11T19:25:04;8.90;78.00
4107;DHT22;21906;50.812;7.132;2023-02-11T19:27:31;8.90;78.00
4107;DHT22;21906;50.812;7.132;2023-02-11T19:30:00;8.80;77.30
4107;DHT22;21906;50.812;7.132;2023-02-11T19:32:29;8.70;77.30
4107;DHT22;21906;50.812;7.132;2023-02-11T19:34:55;8.60;77.20
4107;DHT22;21906;50.812;7.132;2023-02-11T19:37:21;8.50;77.70
4107;DHT22;21906;50.812;7.132;2023-02-11T19:39:47;8.50;78.10
4107;DHT22;21906;50.812;7.132;2023-02-11T19:42:13;8.50;77.90
4107;DHT22;21906;50.812;7.132;2023-02-11T19:44:39;8.60;77.80
4107;DHT22;21906;50.812;7.132;2023-02-11T19:47:05;8.60;77.90
4107;DHT22;21906;50.812;7.132;2023-02-11T19:49:35;8.60;78.00
4107;DHT22;21906;50.812;7.132;2023-02-11T19:52:00;8.60;77.70
4107;DHT22;21906;50.812;7.132;2023-02-11T19:54:27;8.60;77.60
4107;DHT22;21906;50.812;7.132;2023-02-11T19:56:53;8.60;77.60
4107;DHT22;21906;50.812;7.132;2023-02-11T19:59:20;8.50;77.60
4107;DHT22;21906;50.812;7.132;2023-02-11T20:01:46;8.50;77.60
4107;DHT22;21906;50.812;7.132;2023-02-11T20:04:14;8.50;77.90
4107;DHT22;21906;50.812;7.132;2023-02-11T20:06:40;8.50;77.80
4107;DHT22;21906;50.812;7.132;2023-02-11T20:09:09;8.50;77.90
4107;DHT22;21906;50.812;7.132;2023-02-11T20:11:37;8.50;77.80
4107;DHT22;21906;50.812;7.132;2023-02-11T20:14:04;8.40;78.00
4107;DHT22;21906;50.812;7.132;2023-02-11T20:16:32;8.40;78.10
4107;DHT22;21906;50.812;7.132;2023-02-11T20:18:58;8.40;78.20
4107;DHT22;21906;50.812;7.132;2023-02-11T20:21:28;8.50;78.20
4107;DHT22;21906;50.812;7.132;2023-02-11T20:23:54;8.50;78.40
4107;DHT22;21906;50.812;7.132;2023-02-11T20:26:31;8.60;78.40
4107;DHT22;21906;50.812;7.132;2023-02-11T20:28:58;8.60;78.40
4107;DHT22;21906;50.812;7.132;2023-02-11T20:31:30;8.60;78.40
4107;DHT22;21906;50.812;7.132;2023-02-11T20:33:59;8.70;78.20
4107;DHT22;21906;50.812;7.132;2023-02-11T20:36:29;8.60;78.20
4107;DHT22;21906;50.812;7.132;2023-02-11T20:39:00;8.60;78.00
4107;DHT22;21906;50.812;7.132;2023-02-11T20:41:28;8.60;78.10
4107;DHT22;21906;50.812;7.132;2023-02-11T20:44:03;8.50;78.10
4107;DHT22;21906;50.812;7.132;2023-02-11T20:46:30;8.60;78.10
4107;DHT22;21906;50.812;7.132;2023-02-11T20:48:58;8.50;78.00
4107;DHT22;21906;50.812;7.132;2023-02-11T20:51:26;8.60;78.10
4107;DHT22;21906;50.812;7.132;2023-02-11T20:53:53;8.50;78.00
4107;DHT22;21906;50.812;7.132;2023-02-11T20:56:25;8.60;78.10
4107;DHT22;21906;50.812;7.132;2023-02-11T20:58:52;8.50;78.10
4107;DHT22;21906;50.812;7.132;2023-02-11T21:01:22;8.50;78.00
4107;DHT22;21906;50.812;7.132;2023-02-11T21:06:22;8.50;77.90
4107;DHT22;21906;50.812;7.132;2023-02-11T21:08:49;8.50;77.90
4107;DHT22;21906;50.812;7.132;2023-02-11T21:11:15;8.50;77.90
4107;DHT22;21906;50.812;7.132;2023-02-11T21:13:41;8.50;78.10
4107;DHT22;21906;50.812;7.132;2023-02-11T21:16:10;8.40;78.30
4107;DHT22;21906;50.812;7.132;2023-02-11T21:18:37;8.40;78.30
4107;DHT22;21906;50.812;7.132;2023-02-11T21:21:02;8.40;78.40
4107;DHT22;21906;50.812;7.132;2023-02-11T21:23:29;8.50;78.40
4107;DHT22;21906;50.812;7.132;2023-02-11T21:25:55;8.50;78.30
4107;DHT22;21906;50.812;7.132;2023-02-11T21:28:22;8.50;78.30
4107;DHT22;21906;50.812;7.132;2023-02-11T21:30:55;8.50;78.30
4107;DHT22;21906;50.812;7.132;2023-02-11T21:33:22;8.50;78.30
4107;DHT22;21906;50.812;7.132;2023-02-11T21:35:48;8.50;78.30
4107;DHT22;21906;50.812;7.132;2023-02-11T21:38:15;8.50;78.20
4107;DHT22;21906;50.812;7.132;2023-02-11T21:40:41;8.50;78.30
4107;DHT22;21906;50.812;7.132;2023-02-11T21:43:07;8.50;78.40
4107;DHT22;21906;50.812;7.132;2023-02-11T21:45:33;8.60;78.30
4107;DHT22;21906;50.812;7.132;2023-02-11T21:47:59;8.50;78.30
4107;DHT22;21906;50.812;7.132;2023-02-11T21:50:25;8.60;78.30
4107;DHT22;21906;50.812;7.132;2023-02-11T21:52:51;8.60;78.30
4107;DHT22;21906;50.812;7.132;2023-02-11T21:55:16;8.60;78.40
4107;DHT22;21906;50.812;7.132;2023-02-11T21:57:42;8.60;78.50
4107;DHT22;21906;50.812;7.132;2023-02-11T22:00:12;8.60;78.50
4107;DHT22;21906;50.812;7.132;2023-02-11T22:02:38;8.60;78.40
4107;DHT22;21906;50.812;7.132;2023-02-11T22:05:07;8.60;78.30
4107;DHT22;21906;50.812;7.132;2023-02-11T22:07:37;8.60;78.30
4107;DHT22;21906;50.812;7.132;2023-02-11T22:10:03;8.60;78.30
4107;DHT22;21906;50.812;7.132;2023-02-11T22:12:29;8.60;78.40
4107;DHT22;21906;50.812;7.132;2023-02-11T22:14:55;8.60;78.30
4107;DHT22;21906;50.812;7.132;2023-02-11T22:17:21;8.60;78.40
4107;DHT22;21906;50.812;7.132;2023-02-11T22:19:48;8.50;78.60
4107;DHT22;21906;50.812;7.132;2023-02-11T22:22:14;8.50;78.50
4107;DHT22;21906;50.812;7.132;2023-02-11T22:24:43;8.50;78.60
4107;DHT22;21906;50.812;7.132;2023-02-11T22:27:14;8.50;78.60
4107;DHT22;21906;50.812;7.132;2023-02-11T22:29:40;8.50;78.50
4107;DHT22;21906;50.812;7.132;2023-02-11T22:32:06;8.50;78.50
4107;DHT22;21906;50.812;7.132;2023-02-11T22:34:32;8.50;78.40
4107;DHT22;21906;50.812;7.132;2023-02-11T22:36:58;8.50;78.30
4107;DHT22;21906;50.812;7.132;2023-02-11T22:39:25;8.50;78.20
4107;DHT22;21906;50.812;7.132;2023-02-11T22:41:51;8.50;78.30
4107;DHT22;21906;50.812;7.132;2023-02-11T22:44:18;8.50;78.40
4107;DHT22;21906;50.812;7.132;2023-02-11T22:46:46;8.50;78.60
4107;DHT22;21906;50.812;7.132;2023-02-11T22:49:14;8.50;78.70
4107;DHT22;21906;50.812;7.132;2023-02-11T22:51:40;8.50;78.70
4107;DHT22;21906;50.812;7.132;2023-02-11T22:54:07;8.50;78.70
4107;DHT22;21906;50.812;7.132;2023-02-11T22:56:34;8.50;78.60
4107;DHT22;21906;50.812;7.132;2023-02-11T22:59:02;8.60;78.70
4107;DHT22;21906;50.812;7.132;2023-02-11T23:01:29;8.60;78.80
4107;DHT22;21906;50.812;7.132;2023-02-11T23:03:55;8.60;78.70
4107;DHT22;21906;50.812;7.132;2023-02-11T23:06:21;8.60;78.70
4107;DHT22;21906;50.812;7.132;2023-02-11T23:08:47;8.50;78.90
4107;DHT22;21906;50.812;7.132;2023-02-11T23:11:19;8.50;78.80
4107;DHT22;21906;50.812;7.132;2023-02-11T23:13:46;8.60;78.80
4107;DHT22;21906;50.812;7.132;2023-02-11T23:16:15;8.60;78.70
4107;DHT22;21906;50.812;7.132;2023-02-11T23:18:42;8.60;78.60
4107;DHT22;21906;50.812;7.132;2023-02-11T23:21:11;8.60;78.60
4107;DHT22;21906;50.812;7.132;2023-02-11T23:23:37;8.60;78.60
4107;DHT22;21906;50.812;7.132;2023-02-11T23:26:03;8.60;78.60
4107;DHT22;21906;50.812;7.132;2023-02-11T23:28:29;8.60;78.60
4107;DHT22;21906;50.812;7.132;2023-02-11T23:30:54;8.60;78.50
4107;DHT22;21906;50.812;7.132;2023-02-11T23:33:21;8.60;78.50
4107;DHT22;21906;50.812;7.132;2023-02-11T23:35:46;8.60;78.40
4107;DHT22;21906;50.812;7.132;2023-02-11T23:38:12;8.60;78.30
4107;DHT22;21906;50.812;7.132;2023-02-11T23:40:38;8.60;78.30
4107;DHT22;21906;50.812;7.132;2023-02-11T23:43:04;8.60;78.40
4107;DHT22;21906;50.812;7.132;2023-02-11T23:45:29;8.60;78.40
4107;DHT22;21906;50.812;7.132;2023-02-11T23:47:55;8.60;78.40
4107;DHT22;21906;50.812;7.132;2023-02-11T23:50:21;8.60;78.40
4107;DHT22;21906;50.812;7.132;2023-02-11T23:52:46;8.60;78.40
4107;DHT22;21906;50.812;7.132;2023-02-11T23:55:12;8.50;78.30
4107;DHT22;21906;50.812;7.132;2023-02-11T23:57:38;8.50;78.30
